Time;durP1;ratioP1;P1;durP2;ratioP2;P2;SDS_P1;SDS_P2;PMS_P1;PMS_P2;Temp;Humidity;BMP_temperature;BMP_pressure;BME280_temperature;BME280_humidity;BME280_pressure;Samples;Min_cycle;Max_cycle;Signal;HPM_P1;HPM_P2
2022/08/07 00:00:58;;;;;;;;;;;26.60;43.30;;;;;;1457549;80;1164;-67
2022/08/07 00:03:00;;;;;;;;;;;26.60;43.30;;;;;;1457653;80;1926;-66
2022/08/07 00:05:02;;;;;;;;;;;26.60;43.30;;;;;;1454314;81;804;-66
2022/08/07 00:07:04;;;;;;;;;;;26.70;43.20;;;;;;1454002;80;740;-67
2022/08/07 00:09:07;;;;;;;;;;;26.50;43.30;;;;;;1454357;80;772;-66
2022/08/07 00:11:08;;;;;;;;;;;26.70;43.30;;;;;;1454905;80;1201;-67
2022/08/07 00:13:10;;;;;;;;;;;26.60;43.30;;;;;;1454230;80;745;-67
2022/08/07 00:15:12;;;;;;;;;;;26.60;43.30;;;;;;1445880;80;718;-67
2022/08/07 00:17:14;;;;;;;;;;;26.50;43.30;;;;;;1447832;80;816;-67
2022/08/07 00:19:16;;;;;;;;;;;26.60;43.30;;;;;;1455064;81;743;-67
2022/08/07 00:21:18;;;;;;;;;;;26.50;43.30;;;;;;1452952;80;1592;-67
2022/08/07 00:23:20;;;;;;;;;;;26.50;43.30;;;;;;1447241;80;1937;-67
2022/08/07 00:25:23;;;;;;;;;;;26.60;43.40;;;;;;1454123;80;705;-67
2022/08/07 00:27:25;;;;;;;;;;;26.50;43.40;;;;;;1445073;80;737;-67
2022/08/07 00:29:28;;;;;;;;;;;26.60;43.40;;;;;;1452089;81;704;-67
2022/08/07 00:31:30;;;;;;;;;;;26.60;43.40;;;;;;1459127;80;1166;-67
2022/08/07 00:33:32;;;;;;;;;;;26.60;43.40;;;;;;1447246;80;798;-67
2022/08/07 00:35:34;;;;;;;;;;;26.50;43.40;;;;;;1441217;80;867;-67
2022/08/07 00:37:36;;;;;;;;;;;26.50;43.40;;;;;;1449893;80;943;-66
2022/08/07 00:39:38;;;;;;;;;;;26.50;43.40;;;;;;1454060;81;823;-67
2022/08/07 00:41:39;;;;;;;;;;;26.50;43.40;;;;;;1442832;80;1157;-67
2022/08/07 00:43:42;;;;;;;;;;;26.60;43.50;;;;;;1450678;80;1950;-67
2022/08/07 00:45:44;;;;;;;;;;;26.60;43.40;;;;;;1448286;80;694;-67
2022/08/07 00:47:46;;;;;;;;;;;26.60;43.40;;;;;;1458283;80;765;-67
2022/08/07 00:49:48;;;;;;;;;;;26.60;43.50;;;;;;1456049;80;701;-67
2022/08/07 00:51:50;;;;;;;;;;;26.60;43.50;;;;;;1458011;80;1083;-67
2022/08/07 00:53:52;;;;;;;;;;;26.60;43.60;;;;;;1471677;80;793;-66
2022/08/07 00:55:53;;;;;;;;;;;26.60;43.60;;;;;;1462094;80;698;-66
2022/08/07 00:57:55;;;;;;;;;;;26.60;43.50;;;;;;1455599;80;715;-66
2022/08/07 00:59:57;;;;;;;;;;;26.60;43.50;;;;;;1438523;81;580;-66
2022/08/07 01:02:01;;;;;;;;;;;26.50;43.50;;;;;;1464783;80;1156;-67
2022/08/07 01:04:06;;;;;;;;;;;26.50;43.40;;;;;;1448335;80;1905;-66
2022/08/07 01:06:08;;;;;;;;;;;26.50;43.60;;;;;;1458446;80;766;-67
2022/08/07 01:08:10;;;;;;;;;;;26.50;43.40;;;;;;1462122;80;950;-66
2022/08/07 01:10:12;;;;;;;;;;;26.60;43.50;;;;;;1454810;80;1187;-66
2022/08/07 01:12:15;;;;;;;;;;;26.50;43.50;;;;;;1447747;80;726;-66
2022/08/07 01:14:18;;;;;;;;;;;26.60;43.50;;;;;;1459407;80;697;-67
2022/08/07 01:16:19;;;;;;;;;;;26.50;43.50;;;;;;1447097;80;722;-67
2022/08/07 01:18:21;;;;;;;;;;;26.50;43.50;;;;;;1447892;80;1515;-66
2022/08/07 01:20:25;;;;;;;;;;;26.60;43.50;;;;;;1434901;81;1151;-66
2022/08/07 01:22:27;;;;;;;;;;;26.50;43.50;;;;;;1425362;82;1915;-67
2022/08/07 01:24:29;;;;;;;;;;;26.50;43.50;;;;;;1444961;80;728;-66
2022/08/07 01:26:31;;;;;;;;;;;26.50;43.50;;;;;;1435708;81;743;-67
2022/08/07 01:28:33;;;;;;;;;;;26.50;43.50;;;;;;1439789;81;734;-67
2022/08/07 01:30:35;;;;;;;;;;;26.60;43.50;;;;;;1453541;80;1171;-67
2022/08/07 01:32:37;;;;;;;;;;;26.50;43.50;;;;;;1451014;80;812;-66
2022/08/07 01:34:43;;;;;;;;;;;26.50;43.50;;;;;;1453483;80;798;-66
2022/08/07 01:36:43;;;;;;;;;;;26.50;43.50;;;;;;1448066;80;1585;-65
2022/08/07 01:38:44;;;;;;;;;;;26.60;43.40;;;;;;1462479;80;701;-67
2022/08/07 01:40:46;;;;;;;;;;;26.50;43.40;;;;;;1485182;72;2113;-69
2022/08/07 01:42:48;;;;;;;;;;;26.50;43.40;;;;;;1594871;73;1937;-69
2022/08/07 01:44:51;;;;;;;;;;;26.60;43.50;;;;;;1594646;73;705;-68
2022/08/07 01:46:53;;;;;;;;;;;26.50;43.50;;;;;;1598699;73;764;-69
2022/08/07 01:48:55;;;;;;;;;;;26.50;43.50;;;;;;1606252;73;741;-69
2022/08/07 01:50:58;;;;;;;;;;;26.60;43.50;;;;;;1598028;73;1208;-68
2022/08/07 01:53:00;;;;;;;;;;;26.50;43.40;;;;;;1559372;75;706;-67
2022/08/07 01:55:02;;;;;;;;;;;26.60;43.40;;;;;;1577832;74;792;-68
2022/08/07 01:57:08;;;;;;;;;;;26.50;43.40;;;;;;1567959;74;717;-68
2022/08/07 01:59:24;;;;;;;;;;;26.50;43.40;;;;;;1568479;74;1126;-66
2022/08/07 02:01:27;;;;;;;;;;;26.50;43.40;;;;;;1525739;76;1445;-68
2022/08/07 02:03:28;;;;;;;;;;;26.50;43.60;;;;;;1532987;76;1929;-67
2022/08/07 02:05:32;;;;;;;;;;;26.40;43.50;;;;;;1511760;76;660;-67
2022/08/07 02:07:38;;;;;;;;;;;26.50;43.40;;;;;;1510710;76;1126;-68
2022/08/07 02:09:40;;;;;;;;;;;26.50;43.30;;;;;;1533644;76;990;-68
2022/08/07 02:11:43;;;;;;;;;;;26.40;43.30;;;;;;1519775;76;1275;-66
2022/08/07 02:13:45;;;;;;;;;;;26.50;43.20;;;;;;1532642;76;1442;-67
2022/08/07 02:15:47;;;;;;;;;;;26.50;43.20;;;;;;1519215;76;668;-68
2022/08/07 02:17:49;;;;;;;;;;;26.50;43.20;;;;;;1547888;75;716;-67
2022/08/07 02:19:51;;;;;;;;;;;26.50;43.20;;;;;;1530944;76;735;-66
2022/08/07 02:21:53;;;;;;;;;;;26.50;43.10;;;;;;1527267;76;1125;-67
2022/08/07 02:23:54;;;;;;;;;;;26.50;43.10;;;;;;1565373;75;1928;-64
2022/08/07 02:25:56;;;;;;;;;;;26.40;43.10;;;;;;1529223;76;717;-67
2022/08/07 02:27:58;;;;;;;;;;;26.50;43.00;;;;;;1566702;75;693;-68
2022/08/07 02:30:00;;;;;;;;;;;26.50;43.10;;;;;;1554781;74;759;-67
2022/08/07 02:32:02;;;;;;;;;;;26.50;43.00;;;;;;1526944;76;1255;-69
2022/08/07 02:34:04;;;;;;;;;;;26.50;43.00;;;;;;1515391;76;716;-67
2022/08/07 02:36:06;;;;;;;;;;;26.50;43.00;;;;;;1518446;76;813;-67
2022/08/07 02:38:08;;;;;;;;;;;26.50;43.00;;;;;;1542967;76;716;-68
2022/08/07 02:40:10;;;;;;;;;;;26.50;42.90;;;;;;1538249;76;711;-67
2022/08/07 02:42:12;;;;;;;;;;;26.50;42.90;;;;;;1547076;75;1159;-71
2022/08/07 02:44:14;;;;;;;;;;;26.50;42.80;;;;;;1545113;76;1916;-69
2022/08/07 02:46:17;;;;;;;;;;;26.40;42.80;;;;;;1529308;76;712;-68
2022/08/07 02:48:19;;;;;;;;;;;26.40;42.80;;;;;;1528696;76;700;-69
2022/08/07 02:50:21;;;;;;;;;;;26.40;42.80;;;;;;1564465;74;749;-68
2022/08/07 02:52:26;;;;;;;;;;;26.40;42.80;;;;;;1514118;76;730;-69
2022/08/07 02:54:28;;;;;;;;;;;26.40;42.70;;;;;;1521371;76;717;-67
2022/08/07 02:56:31;;;;;;;;;;;26.40;42.70;;;;;;1519076;76;811;-69
2022/08/07 02:58:33;;;;;;;;;;;26.40;42.70;;;;;;1565043;74;844;-66
2022/08/07 03:00:35;;;;;;;;;;;26.50;42.60;;;;;;1553950;74;1089;-67
2022/08/07 03:02:37;;;;;;;;;;;26.40;42.60;;;;;;1551830;74;691;-67
2022/08/07 03:04:40;;;;;;;;;;;26.40;42.50;;;;;;1567232;74;1924;-67
2022/08/07 03:06:42;;;;;;;;;;;26.40;42.60;;;;;;1558295;75;752;-65
2022/08/07 03:08:44;;;;;;;;;;;26.40;42.60;;;;;;1543829;76;717;-67
2022/08/07 03:10:46;;;;;;;;;;;26.40;42.50;;;;;;1521776;76;1472;-68
2022/08/07 03:12:48;;;;;;;;;;;26.40;42.50;;;;;;1531894;76;671;-67
2022/08/07 03:14:50;;;;;;;;;;;26.40;42.50;;;;;;1527850;76;719;-69
2022/08/07 03:16:51;;;;;;;;;;;26.30;42.40;;;;;;1536569;76;748;-66
2022/08/07 03:18:53;;;;;;;;;;;26.40;42.40;;;;;;1529425;76;708;-67
2022/08/07 03:20:55;;;;;;;;;;;26.30;42.40;;;;;;1540506;76;1158;-67
2022/08/07 03:22:57;;;;;;;;;;;26.30;42.50;;;;;;1543124;76;1940;-67
2022/08/07 03:24:59;;;;;;;;;;;26.30;42.40;;;;;;1557065;74;786;-68
2022/08/07 03:27:02;;;;;;;;;;;26.30;42.30;;;;;;1529130;76;725;-66
2022/08/07 03:29:05;;;;;;;;;;;26.30;42.30;;;;;;1539415;76;731;-68
2022/08/07 03:31:19;;;;;;;;;;;26.40;42.30;;;;;;1547169;76;1158;-67
2022/08/07 03:33:21;;;;;;;;;;;26.40;42.30;;;;;;1545827;76;662;-68
2022/08/07 03:35:23;;;;;;;;;;;26.30;42.30;;;;;;1536604;76;698;-67
2022/08/07 03:37:25;;;;;;;;;;;26.30;42.30;;;;;;1549683;76;764;-67
2022/08/07 03:39:27;;;;;;;;;;;26.30;42.30;;;;;;1574785;74;690;-68
2022/08/07 03:41:29;;;;;;;;;;;26.30;42.30;;;;;;1521013;76;1159;-67
2022/08/07 03:43:31;;;;;;;;;;;26.30;42.20;;;;;;1566865;74;1922;-68
2022/08/07 03:45:33;;;;;;;;;;;26.20;42.20;;;;;;1556466;74;725;-68
2022/08/07 03:47:35;;;;;;;;;;;26.20;42.10;;;;;;1524182;76;674;-70
2022/08/07 03:49:37;;;;;;;;;;;26.30;42.20;;;;;;1534123;76;727;-68
2022/08/07 03:51:39;;;;;;;;;;;26.20;42.20;;;;;;1540997;76;1143;-69
2022/08/07 03:53:41;;;;;;;;;;;26.20;42.20;;;;;;1569721;74;712;-70
2022/08/07 03:55:42;;;;;;;;;;;26.30;42.20;;;;;;1548420;75;726;-67
2022/08/07 03:57:44;;;;;;;;;;;26.30;42.20;;;;;;1566671;75;712;-67
2022/08/07 03:59:46;;;;;;;;;;;26.30;42.20;;;;;;1548629;75;639;-67
2022/08/07 04:01:48;;;;;;;;;;;26.30;42.20;;;;;;1542534;75;1151;-66
2022/08/07 04:03:50;;;;;;;;;;;26.20;42.20;;;;;;1533737;75;1926;-67
2022/08/07 04:05:52;;;;;;;;;;;26.20;42.20;;;;;;1541927;75;1525;-69
2022/08/07 04:07:54;;;;;;;;;;;26.20;42.20;;;;;;1539279;75;750;-70
2022/08/07 04:09:56;;;;;;;;;;;26.30;42.20;;;;;;1538844;75;792;-67
2022/08/07 04:11:57;;;;;;;;;;;26.20;42.20;;;;;;1551258;75;1197;-68
2022/08/07 04:14:00;;;;;;;;;;;26.20;42.20;;;;;;1547017;75;711;-68
2022/08/07 04:16:02;;;;;;;;;;;26.20;42.20;;;;;;1548546;75;710;-70
2022/08/07 04:18:04;;;;;;;;;;;26.20;42.20;;;;;;1565158;75;726;-68
2022/08/07 04:20:07;;;;;;;;;;;26.20;42.20;;;;;;1540828;75;718;-68
2022/08/07 04:22:10;;;;;;;;;;;26.20;42.20;;;;;;1543162;75;1063;-67
2022/08/07 04:24:12;;;;;;;;;;;26.20;42.30;;;;;;1557065;75;1941;-67
2022/08/07 04:26:13;;;;;;;;;;;26.20;42.30;;;;;;1550089;75;684;-68
2022/08/07 04:28:15;;;;;;;;;;;26.20;42.30;;;;;;1556595;75;736;-69
2022/08/07 04:30:17;;;;;;;;;;;26.20;42.30;;;;;;1552314;75;866;-67
2022/08/07 04:32:19;;;;;;;;;;;26.20;42.20;;;;;;1541604;75;1075;-66
2022/08/07 04:34:21;;;;;;;;;;;26.20;42.30;;;;;;1553926;75;788;-67
2022/08/07 04:36:23;;;;;;;;;;;26.20;42.30;;;;;;1547040;75;772;-67
2022/08/07 04:38:25;;;;;;;;;;;26.20;42.20;;;;;;1552981;75;733;-67
2022/08/07 04:40:27;;;;;;;;;;;26.20;42.20;;;;;;1549613;75;1142;-68
2022/08/07 04:42:31;;;;;;;;;;;26.20;42.20;;;;;;1557475;75;831;-68
2022/08/07 04:44:33;;;;;;;;;;;26.20;42.30;;;;;;1542071;75;1951;-70
2022/08/07 04:46:45;;;;;;;;;;;26.20;42.30;;;;;;1556168;75;756;-67
2022/08/07 04:48:49;;;;;;;;;;;26.20;42.20;;;;;;1550076;75;796;-69
2022/08/07 04:50:52;;;;;;;;;;;26.20;42.20;;;;;;1555418;75;1095;-68
2022/08/07 04:52:58;;;;;;;;;;;26.20;42.20;;;;;;1554222;75;1718;-67
2022/08/07 04:55:02;;;;;;;;;;;26.20;42.20;;;;;;1548145;75;1699;-69
2022/08/07 04:57:11;;;;;;;;;;;26.20;42.20;;;;;;1542846;75;706;-68
2022/08/07 04:59:33;;;;;;;;;;;26.20;42.20;;;;;;1538132;75;780;-69
2022/08/07 05:01:46;;;;;;;;;;;26.20;42.30;;;;;;1542653;75;1166;-69
2022/08/07 05:03:55;;;;;;;;;;;26.20;42.20;;;;;;1567217;74;1945;-68
2022/08/07 05:06:00;;;;;;;;;;;26.20;42.30;;;;;;1545226;75;1747;-68
2022/08/07 05:08:10;;;;;;;;;;;26.10;42.20;;;;;;1558160;75;705;-68
2022/08/07 05:10:13;;;;;;;;;;;26.10;42.30;;;;;;1552814;75;714;-69
2022/08/07 05:12:16;;;;;;;;;;;26.10;42.30;;;;;;1565405;75;1120;-69
2022/08/07 05:14:28;;;;;;;;;;;26.10;42.30;;;;;;1552876;75;799;-69
2022/08/07 05:16:30;;;;;;;;;;;26.10;42.30;;;;;;1549425;75;742;-68
2022/08/07 05:18:34;;;;;;;;;;;26.10;42.30;;;;;;1566882;75;731;-68
2022/08/07 05:20:40;;;;;;;;;;;26.10;42.30;;;;;;1552204;75;1181;-69
2022/08/07 05:22:42;;;;;;;;;;;26.10;42.30;;;;;;1556916;75;1172;-67
2022/08/07 05:24:44;;;;;;;;;;;26.10;42.30;;;;;;1537419;75;1918;-70
2022/08/07 05:26:46;;;;;;;;;;;26.10;42.20;;;;;;1554070;75;784;-69
2022/08/07 05:28:49;;;;;;;;;;;26.10;42.30;;;;;;1559559;75;781;-70
2022/08/07 05:30:51;;;;;;;;;;;26.10;42.20;;;;;;1549306;75;1168;-67
2022/08/07 05:32:53;;;;;;;;;;;26.10;42.30;;;;;;1544933;75;664;-68
2022/08/07 05:34:55;;;;;;;;;;;26.10;42.20;;;;;;1547058;75;753;-69
2022/08/07 05:36:57;;;;;;;;;;;26.00;42.20;;;;;;1547061;75;749;-70
2022/08/07 05:38:59;;;;;;;;;;;26.00;42.20;;;;;;1550531;75;814;-69
2022/08/07 05:41:01;;;;;;;;;;;26.10;42.20;;;;;;1557558;75;1157;-67
2022/08/07 05:43:03;;;;;;;;;;;26.10;42.30;;;;;;1542581;75;835;-68
2022/08/07 05:45:05;;;;;;;;;;;26.00;42.10;;;;;;1548402;75;1943;-67
2022/08/07 05:47:08;;;;;;;;;;;26.10;42.20;;;;;;1549037;75;787;-70
2022/08/07 05:49:10;;;;;;;;;;;26.00;42.20;;;;;;1549593;75;775;-68
2022/08/07 05:51:12;;;;;;;;;;;26.10;42.20;;;;;;1546584;75;1206;-69
2022/08/07 05:53:14;;;;;;;;;;;26.00;42.20;;;;;;1544402;75;792;-68
2022/08/07 05:55:16;;;;;;;;;;;26.10;42.10;;;;;;1514230;76;807;-68
2022/08/07 05:57:18;;;;;;;;;;;26.00;42.20;;;;;;1539876;75;792;-69
2022/08/07 05:59:19;;;;;;;;;;;26.10;42.10;;;;;;1543765;75;1433;-72
2022/08/07 06:01:21;;;;;;;;;;;26.00;42.10;;;;;;1552457;75;1136;-68
2022/08/07 06:03:23;;;;;;;;;;;26.10;42.10;;;;;;1543847;75;636;-69
2022/08/07 06:05:30;;;;;;;;;;;26.10;42.00;;;;;;1549561;75;1965;-69
2022/08/07 06:07:32;;;;;;;;;;;26.00;42.00;;;;;;1544633;75;733;-70
2022/08/07 06:09:34;;;;;;;;;;;26.10;42.10;;;;;;1550867;75;825;-68
2022/08/07 06:11:36;;;;;;;;;;;26.10;42.00;;;;;;1553769;75;1123;-69
2022/08/07 06:13:38;;;;;;;;;;;26.00;42.10;;;;;;1554370;75;814;-66
2022/08/07 06:15:40;;;;;;;;;;;26.00;42.00;;;;;;1544947;75;827;-66
2022/08/07 06:17:42;;;;;;;;;;;26.10;41.90;;;;;;1544101;75;819;-67
2022/08/07 06:19:44;;;;;;;;;;;26.10;41.90;;;;;;1545284;75;747;-69
2022/08/07 06:21:46;;;;;;;;;;;26.00;41.90;;;;;;1559634;75;1161;-67
2022/08/07 06:23:48;;;;;;;;;;;26.10;42.10;;;;;;1555186;75;728;-69
2022/08/07 06:25:50;;;;;;;;;;;26.10;41.90;;;;;;1553471;75;1929;-69
2022/08/07 06:27:52;;;;;;;;;;;26.10;41.80;;;;;;1555496;75;672;-68
2022/08/07 06:29:53;;;;;;;;;;;26.00;41.70;;;;;;1543699;75;632;-70
2022/08/07 06:31:55;;;;;;;;;;;26.00;41.70;;;;;;1546676;75;1132;-70
2022/08/07 06:33:57;;;;;;;;;;;26.00;41.70;;;;;;1570309;75;752;-69
2022/08/07 06:35:59;;;;;;;;;;;26.00;41.60;;;;;;1549764;75;742;-68
2022/08/07 06:38:01;;;;;;;;;;;26.00;41.70;;;;;;1550374;75;686;-69
2022/08/07 06:40:03;;;;;;;;;;;26.00;41.70;;;;;;1559293;75;772;-68
2022/08/07 06:42:06;;;;;;;;;;;26.00;41.60;;;;;;1559103;75;1109;-67
2022/08/07 06:44:08;;;;;;;;;;;26.00;41.60;;;;;;1564916;75;1921;-69
2022/08/07 06:46:09;;;;;;;;;;;26.00;41.70;;;;;;1542640;75;573;-69
2022/08/07 06:48:11;;;;;;;;;;;26.00;41.50;;;;;;1556917;75;772;-69
2022/08/07 06:50:13;;;;;;;;;;;26.00;41.60;;;;;;1550535;75;678;-70
2022/08/07 06:52:15;;;;;;;;;;;26.00;41.50;;;;;;1554991;75;1096;-70
2022/08/07 06:54:17;;;;;;;;;;;26.00;41.50;;;;;;1538601;75;731;-71
2022/08/07 06:56:38;;;;;;;;;;;25.90;40.90;;;;;;1570123;75;1607;-70
2022/08/07 06:58:22;;;;;;;;;;;26.00;41.50;;;;;;1550113;75;1632;-70
2022/08/07 07:00:24;;;;;;;;;;;25.90;40.90;;;;;;1548629;75;1169;-66
2022/08/07 07:02:26;;;;;;;;;;;25.90;40.90;;;;;;1555173;75;806;-70
2022/08/07 07:04:30;;;;;;;;;;;25.90;40.90;;;;;;1555651;74;1926;-70
2022/08/07 07:06:32;;;;;;;;;;;25.90;40.80;;;;;;1555497;75;714;-71
2022/08/07 07:08:33;;;;;;;;;;;25.90;40.80;;;;;;1555467;75;736;-71
2022/08/07 07:10:35;;;;;;;;;;;25.90;40.80;;;;;;1560171;75;1154;-71
2022/08/07 07:12:39;;;;;;;;;;;25.80;40.80;;;;;;1566665;75;659;-70
2022/08/07 07:14:45;;;;;;;;;;;25.80;40.70;;;;;;1546756;75;790;-71
2022/08/07 07:16:47;;;;;;;;;;;25.90;40.70;;;;;;1550625;75;1369;-70
2022/08/07 07:18:51;;;;;;;;;;;25.80;40.70;;;;;;1548478;75;619;-70
2022/08/07 07:20:53;;;;;;;;;;;25.80;40.60;;;;;;1555306;75;1769;-70
2022/08/07 07:22:55;;;;;;;;;;;25.70;40.60;;;;;;1546975;75;1054;-70
2022/08/07 07:24:57;;;;;;;;;;;25.80;40.60;;;;;;1550955;75;1953;-69
2022/08/07 07:26:59;;;;;;;;;;;25.80;40.50;;;;;;1553009;75;787;-69
2022/08/07 07:29:02;;;;;;;;;;;25.70;40.60;;;;;;1549903;75;734;-71
2022/08/07 07:31:09;;;;;;;;;;;25.80;40.60;;;;;;1553694;75;1157;-70
2022/08/07 07:33:12;;;;;;;;;;;25.80;40.60;;;;;;1562374;75;743;-69
2022/08/07 07:35:14;;;;;;;;;;;25.80;40.60;;;;;;1555825;75;795;-68
2022/08/07 07:37:16;;;;;;;;;;;25.70;40.60;;;;;;1548994;75;709;-69
2022/08/07 07:39:18;;;;;;;;;;;25.70;40.60;;;;;;1554522;75;811;-69
2022/08/07 07:41:21;;;;;;;;;;;25.70;40.50;;;;;;1541846;73;3081;-69
2022/08/07 07:43:23;;;;;;;;;;;25.80;40.60;;;;;;1527263;76;723;-68
2022/08/07 07:45:25;;;;;;;;;;;25.80;40.60;;;;;;1490931;78;1930;-69
2022/08/07 07:47:27;;;;;;;;;;;25.70;40.60;;;;;;1530658;77;673;-69
2022/08/07 07:49:29;;;;;;;;;;;25.70;40.70;;;;;;1532453;76;796;-68
2022/08/07 07:51:31;;;;;;;;;;;25.70;40.60;;;;;;1518406;76;1575;-69
2022/08/07 07:53:34;;;;;;;;;;;25.70;40.70;;;;;;1476003;80;825;-69
2022/08/07 07:55:35;;;;;;;;;;;25.70;40.70;;;;;;1493696;79;719;-69
2022/08/07 07:57:37;;;;;;;;;;;25.70;40.70;;;;;;1469784;80;825;-69
2022/08/07 07:59:39;;;;;;;;;;;25.70;40.70;;;;;;1519663;76;761;-69
2022/08/07 08:01:42;;;;;;;;;;;25.70;40.70;;;;;;1517720;76;1155;-69
2022/08/07 08:03:44;;;;;;;;;;;25.70;40.70;;;;;;1515590;76;730;-68
2022/08/07 08:05:46;;;;;;;;;;;25.70;40.60;;;;;;1516326;76;1938;-68
2022/08/07 08:07:47;;;;;;;;;;;25.70;40.60;;;;;;1526066;76;737;-70
2022/08/07 08:09:50;;;;;;;;;;;25.70;40.50;;;;;;1526373;76;799;-69
2022/08/07 08:11:52;;;;;;;;;;;25.60;40.60;;;;;;1522468;76;1159;-69
2022/08/07 08:13:54;;;;;;;;;;;25.60;40.60;;;;;;1525438;76;822;-68
2022/08/07 08:15:57;;;;;;;;;;;25.70;40.60;;;;;;1524404;76;783;-68
2022/08/07 08:17:58;;;;;;;;;;;25.70;40.50;;;;;;1523167;76;815;-69
2022/08/07 08:20:01;;;;;;;;;;;25.70;40.50;;;;;;1526114;76;800;-68
2022/08/07 08:29:02;;;;;;;;;;;25.70;40.50;;;;;;1536081;76;1643;-70
2022/08/07 08:31:04;;;;;;;;;;;25.70;40.50;;;;;;1521260;76;1163;-68
2022/08/07 08:33:06;;;;;;;;;;;25.70;40.50;;;;;;1524022;76;738;-67
2022/08/07 08:35:10;;;;;;;;;;;25.70;40.50;;;;;;1522862;76;785;-67
2022/08/07 08:37:12;;;;;;;;;;;25.70;40.50;;;;;;1517952;76;1013;-67
2022/08/07 08:39:14;;;;;;;;;;;25.60;40.40;;;;;;1529537;76;799;-67
2022/08/07 08:41:32;;;;;;;;;;;25.70;40.50;;;;;;1526243;76;1154;-67
2022/08/07 08:43:36;;;;;;;;;;;25.70;40.50;;;;;;1529999;76;1959;-68
2022/08/07 08:45:42;;;;;;;;;;;25.70;40.50;;;;;;1525336;76;1920;-68
2022/08/07 08:47:45;;;;;;;;;;;25.70;40.50;;;;;;1530773;76;1616;-67
2022/08/07 08:49:58;;;;;;;;;;;25.70;40.50;;;;;;1540415;76;1610;-67
2022/08/07 08:52:01;;;;;;;;;;;25.70;40.40;;;;;;1524199;76;1167;-68
2022/08/07 08:54:05;;;;;;;;;;;25.70;40.40;;;;;;1524496;76;1034;-68
2022/08/07 08:56:11;;;;;;;;;;;25.70;40.40;;;;;;1530591;76;759;-68
2022/08/07 08:58:31;;;;;;;;;;;25.70;40.40;;;;;;1530290;76;1762;-68
2022/08/07 09:00:35;;;;;;;;;;;25.70;40.30;;;;;;1521155;76;802;-67
2022/08/07 09:02:44;;;;;;;;;;;25.70;40.40;;;;;;1534488;76;1230;-68
2022/08/07 09:04:51;;;;;;;;;;;25.80;40.40;;;;;;1526193;76;813;-68
2022/08/07 09:06:54;;;;;;;;;;;25.70;40.40;;;;;;1522067;76;1920;-68
2022/08/07 09:09:14;;;;;;;;;;;25.70;40.30;;;;;;1527808;76;797;-67
2022/08/07 09:11:17;;;;;;;;;;;25.70;40.20;;;;;;1522771;76;1148;-69
2022/08/07 09:13:23;;;;;;;;;;;25.70;40.20;;;;;;1526752;76;738;-67
2022/08/07 09:15:27;;;;;;;;;;;25.80;40.30;;;;;;1525385;76;683;-68
2022/08/07 09:17:43;;;;;;;;;;;25.80;40.20;;;;;;1523763;76;728;-69
2022/08/07 09:19:46;;;;;;;;;;;25.70;40.20;;;;;;1524303;76;780;-67
2022/08/07 09:22:06;;;;;;;;;;;25.80;40.10;;;;;;1527784;76;1065;-68
2022/08/07 09:24:12;;;;;;;;;;;25.70;40.10;;;;;;1519914;76;735;-69
2022/08/07 09:26:16;;;;;;;;;;;25.80;40.00;;;;;;1529473;76;1956;-68
2022/08/07 09:28:37;;;;;;;;;;;25.70;40.00;;;;;;1532066;76;2231;-68
2022/08/07 09:30:46;;;;;;;;;;;25.70;40.00;;;;;;1543850;75;956;-68
2022/08/07 09:33:06;;;;;;;;;;;25.80;40.00;;;;;;1528769;76;869;-67
2022/08/07 09:35:21;;;;;;;;;;;25.80;40.00;;;;;;1515916;76;804;-68
2022/08/07 09:37:25;;;;;;;;;;;25.70;40.00;;;;;;1526977;76;929;-68
2022/08/07 09:39:28;;;;;;;;;;;25.80;40.00;;;;;;1527182;76;711;-68
2022/08/07 09:41:38;;;;;;;;;;;25.80;39.90;;;;;;1523420;76;1150;-68
2022/08/07 09:44:00;;;;;;;;;;;25.80;39.80;;;;;;1530352;76;1882;-69
2022/08/07 09:46:03;;;;;;;;;;;25.80;39.80;;;;;;1531030;76;1958;-67
2022/08/07 09:48:12;;;;;;;;;;;25.80;39.80;;;;;;1529819;76;1004;-67
2022/08/07 09:50:22;;;;;;;;;;;25.80;39.70;;;;;;1532580;76;788;-68
2022/08/07 09:52:25;;;;;;;;;;;25.80;39.80;;;;;;1527214;76;1154;-67
2022/08/07 09:54:32;;;;;;;;;;;25.70;39.70;;;;;;1528154;76;755;-68
2022/08/07 09:56:35;;;;;;;;;;;25.80;39.70;;;;;;1520321;76;1575;-68
2022/08/07 09:58:39;;;;;;;;;;;25.80;39.60;;;;;;1512605;76;1805;-68
2022/08/07 10:00:48;;;;;;;;;;;25.80;39.60;;;;;;1530805;76;695;-68
2022/08/07 10:03:08;;;;;;;;;;;25.80;39.50;;;;;;1523272;76;1901;-67
2022/08/07 10:05:30;;;;;;;;;;;25.80;39.40;;;;;;1539189;76;798;-68
2022/08/07 10:07:40;;;;;;;;;;;25.80;39.40;;;;;;1530400;76;2015;-68
2022/08/07 10:10:00;;;;;;;;;;;25.80;39.40;;;;;;1528318;76;842;-67
2022/08/07 10:12:16;;;;;;;;;;;25.90;39.50;;;;;;1529350;76;1119;-68
2022/08/07 10:14:35;;;;;;;;;;;25.80;39.50;;;;;;1533684;76;774;-69
2022/08/07 10:16:38;;;;;;;;;;;25.80;39.50;;;;;;1534761;76;734;-68
2022/08/07 10:18:42;;;;;;;;;;;25.80;39.40;;;;;;1521486;76;749;-68
2022/08/07 10:20:46;;;;;;;;;;;25.90;39.40;;;;;;1530307;76;730;-68
2022/08/07 10:22:52;;;;;;;;;;;25.80;39.20;;;;;;1535748;76;769;-67
2022/08/07 10:24:56;;;;;;;;;;;25.70;39.30;;;;;;1521113;76;711;-67
2022/08/07 10:27:18;;;;;;;;;;;25.70;39.30;;;;;;1520998;76;2115;-68
2022/08/07 10:29:24;;;;;;;;;;;25.70;39.30;;;;;;1527710;76;1975;-68
2022/08/07 10:31:40;;;;;;;;;;;25.70;39.30;;;;;;1526938;76;1150;-68
2022/08/07 10:33:43;;;;;;;;;;;25.70;39.40;;;;;;1524414;76;752;-67
2022/08/07 10:36:02;;;;;;;;;;;25.70;39.40;;;;;;1528223;76;854;-67
2022/08/07 10:38:22;;;;;;;;;;;25.70;39.40;;;;;;1542091;76;741;-68
2022/08/07 10:40:38;;;;;;;;;;;25.70;39.40;;;;;;1526310;76;1514;-68
2022/08/07 10:42:40;;;;;;;;;;;25.80;39.40;;;;;;1527444;76;1095;-68
2022/08/07 10:44:50;;;;;;;;;;;25.70;39.40;;;;;;1523911;76;737;-66
2022/08/07 10:46:55;;;;;;;;;;;25.70;39.40;;;;;;1515229;76;1972;-69
2022/08/07 10:48:59;;;;;;;;;;;25.70;39.40;;;;;;1527670;76;725;-68
2022/08/07 10:51:06;;;;;;;;;;;25.80;39.40;;;;;;1522906;76;1817;-68
2022/08/07 10:53:10;;;;;;;;;;;25.70;39.40;;;;;;1524279;76;848;-67
2022/08/07 10:55:13;;;;;;;;;;;25.80;39.40;;;;;;1517778;76;745;-67
2022/08/07 10:57:26;;;;;;;;;;;25.80;39.30;;;;;;1511436;76;735;-67
2022/08/07 10:59:33;;;;;;;;;;;25.70;39.20;;;;;;1523647;76;793;-67
2022/08/07 11:01:55;;;;;;;;;;;25.80;39.10;;;;;;1524594;76;1169;-67
2022/08/07 11:04:04;;;;;;;;;;;25.80;39.10;;;;;;1527823;76;1032;-66
2022/08/07 11:06:14;;;;;;;;;;;25.80;39.20;;;;;;1522141;76;1920;-67
2022/08/07 11:08:27;;;;;;;;;;;25.80;39.20;;;;;;1526789;76;1994;-66
2022/08/07 11:10:33;;;;;;;;;;;25.80;39.20;;;;;;1526822;76;1977;-67
2022/08/07 11:12:36;;;;;;;;;;;25.80;39.20;;;;;;1522737;76;1147;-67
2022/08/07 11:14:43;;;;;;;;;;;25.70;39.30;;;;;;1523862;76;696;-67
2022/08/07 11:16:55;;;;;;;;;;;25.80;39.20;;;;;;1519840;76;727;-67
2022/08/07 11:19:11;;;;;;;;;;;25.70;39.20;;;;;;1527645;76;1160;-66
2022/08/07 11:21:20;;;;;;;;;;;25.80;39.20;;;;;;1522983;76;1234;-67
2022/08/07 11:23:40;;;;;;;;;;;25.70;39.20;;;;;;1522756;76;797;-67
2022/08/07 11:25:44;;;;;;;;;;;25.80;39.20;;;;;;1530323;76;1932;-66
2022/08/07 11:27:48;;;;;;;;;;;25.70;39.20;;;;;;1538045;76;736;-66
2022/08/07 11:29:51;;;;;;;;;;;25.70;39.20;;;;;;1526366;76;2353;-66
2022/08/07 11:31:55;;;;;;;;;;;25.70;39.30;;;;;;1529872;76;2079;-67
2022/08/07 11:34:00;;;;;;;;;;;25.70;39.30;;;;;;1522926;76;763;-67
2022/08/07 11:36:19;;;;;;;;;;;25.70;39.30;;;;;;1524976;76;1569;-67
2022/08/07 11:38:23;;;;;;;;;;;25.80;39.20;;;;;;1534826;76;723;-67
2022/08/07 11:40:43;;;;;;;;;;;25.80;39.20;;;;;;1529140;76;1901;-67
2022/08/07 11:42:49;;;;;;;;;;;25.80;39.30;;;;;;1534662;76;1117;-67
2022/08/07 11:45:01;;;;;;;;;;;25.70;39.20;;;;;;1522786;76;1902;-68
2022/08/07 11:47:23;;;;;;;;;;;25.80;39.20;;;;;;1519896;76;1953;-67
2022/08/07 11:49:35;;;;;;;;;;;25.70;39.20;;;;;;1532200;76;740;-70
2022/08/07 11:51:39;;;;;;;;;;;25.70;39.30;;;;;;1530019;76;1204;-66
2022/08/07 11:53:51;;;;;;;;;;;25.70;39.30;;;;;;1525255;76;740;-68
2022/08/07 11:55:55;;;;;;;;;;;25.70;39.30;;;;;;1516779;76;787;-68
2022/08/07 11:58:15;;;;;;;;;;;25.80;39.20;;;;;;1520332;76;1875;-67
2022/08/07 12:00:18;;;;;;;;;;;25.70;39.10;;;;;;1535560;76;790;-67
2022/08/07 12:02:37;;;;;;;;;;;25.70;39.20;;;;;;1519527;76;1173;-68
2022/08/07 12:04:43;;;;;;;;;;;25.80;39.20;;;;;;1524294;76;1754;-68
2022/08/07 12:06:50;;;;;;;;;;;25.80;39.30;;;;;;1522489;76;1952;-68
2022/08/07 12:09:09;;;;;;;;;;;25.70;39.30;;;;;;1533263;76;1635;-68
2022/08/07 12:11:15;;;;;;;;;;;25.80;39.30;;;;;;1526445;76;1150;-68
2022/08/07 12:13:21;;;;;;;;;;;25.80;39.30;;;;;;1535277;76;777;-68
2022/08/07 12:15:24;;;;;;;;;;;25.70;39.30;;;;;;1520473;76;722;-68
2022/08/07 12:17:27;;;;;;;;;;;25.70;39.30;;;;;;1524657;76;649;-67
2022/08/07 12:19:43;;;;;;;;;;;25.70;39.30;;;;;;1533172;76;827;-67
2022/08/07 12:21:55;;;;;;;;;;;25.70;39.20;;;;;;1523319;76;1955;-68
2022/08/07 12:24:05;;;;;;;;;;;25.70;39.30;;;;;;1514788;76;1728;-67
2022/08/07 12:26:18;;;;;;;;;;;25.80;39.40;;;;;;1531659;76;1960;-68
2022/08/07 12:28:23;;;;;;;;;;;25.70;39.40;;;;;;1523313;76;750;-67
2022/08/07 12:30:26;;;;;;;;;;;25.80;39.30;;;;;;1541984;76;848;-67